createdAt,value
2022-12-01T00:02:30.190Z,1.06
2022-12-01T00:07:33.442Z,1.06
2022-12-01T00:12:36.547Z,1.06
2022-12-01T00:17:39.620Z,1.05
2022-12-01T00:22:44.269Z,1.07
2022-12-01T00:27:52.289Z,1.08
2022-12-01T00:32:55.396Z,1.07
2022-12-01T00:37:58.405Z,1.07
2022-12-01T00:43:01.416Z,1.05
2022-12-01T00:48:04.826Z,1.05
2022-12-01T00:53:07.836Z,1.03
2022-12-01T00:58:11.862Z,1.01
2022-12-01T01:03:14.869Z,1.02
2022-12-01T01:08:17.874Z,1.01
2022-12-01T01:13:20.785Z,0.98
2022-12-01T01:18:23.787Z,0.97
2022-12-01T01:23:27.306Z,0.95
2022-12-01T01:28:31.742Z,0.93
2022-12-01T01:33:34.854Z,0.90
2022-12-01T01:38:37.960Z,0.89
2022-12-01T01:43:40.967Z,0.88
2022-12-01T01:48:48.423Z,0.87
2022-12-01T01:53:54.508Z,0.85
2022-12-01T01:58:58.434Z,0.84
2022-12-01T02:04:01.576Z,0.86
2022-12-01T02:09:04.501Z,0.87
2022-12-01T02:14:26.345Z,0.89
2022-12-01T02:19:44.304Z,0.93
2022-12-01T02:25:02.361Z,0.93
2022-12-01T02:30:05.375Z,0.94
2022-12-01T02:35:49.437Z,0.95
2022-12-01T02:41:20.295Z,0.96
2022-12-01T02:46:23.276Z,0.97
2022-12-01T02:51:32.318Z,0.98
2022-12-01T02:56:35.255Z,0.98
2022-12-01T03:01:56.801Z,0.98
2022-12-01T03:07:37.820Z,0.96
2022-12-01T03:12:49.682Z,0.96
2022-12-01T03:18:24.539Z,0.94
2022-12-01T03:23:31.503Z,0.93
2022-12-01T03:28:39.249Z,0.92
2022-12-01T03:34:37.970Z,0.89
2022-12-01T03:39:44.072Z,0.91
2022-12-01T03:44:57.085Z,0.92
2022-12-01T03:50:00.931Z,0.91
2022-12-01T03:55:16.311Z,0.93
2022-12-01T04:00:20.461Z,0.92
2022-12-01T04:05:25.464Z,0.91
2022-12-01T04:10:28.705Z,0.91
2022-12-01T04:15:31.718Z,0.89
2022-12-01T04:20:34.722Z,0.87
2022-12-01T04:25:37.627Z,0.86
2022-12-01T04:30:40.633Z,0.85
2022-12-01T04:35:43.641Z,0.84
2022-12-01T04:40:46.849Z,0.84
2022-12-01T04:45:49.961Z,0.83
2022-12-01T04:50:52.963Z,0.81
2022-12-01T04:55:56.070Z,0.80
2022-12-01T05:01:04.091Z,0.79
2022-12-01T05:06:11.382Z,0.79
2022-12-01T05:11:14.927Z,0.80
2022-12-01T05:16:30.124Z,0.81
2022-12-01T05:21:33.121Z,0.80
2022-12-01T05:26:36.225Z,0.80
2022-12-01T05:31:39.985Z,0.81
2022-12-01T05:36:43.058Z,0.82
2022-12-01T05:41:45.960Z,0.84
2022-12-01T05:46:49.072Z,0.83
2022-12-01T05:51:52.281Z,0.83
2022-12-01T05:56:55.287Z,0.83
2022-12-01T06:01:58.488Z,0.85
2022-12-01T06:07:01.620Z,0.88
2022-12-01T06:12:04.824Z,0.89
2022-12-01T06:17:07.929Z,0.92
2022-12-01T06:22:11.241Z,0.93
2022-12-01T06:27:14.348Z,0.98
2022-12-01T06:32:17.866Z,1.00
2022-12-01T06:37:21.077Z,1.02
2022-12-01T06:42:24.085Z,1.03
2022-12-01T06:47:27.601Z,1.04
2022-12-01T06:52:30.506Z,1.05
2022-12-01T06:57:33.513Z,1.07
2022-12-01T07:02:36.676Z,1.09
2022-12-01T07:07:40.300Z,1.15
2022-12-01T07:12:43.351Z,1.16
2022-12-01T07:17:46.256Z,1.16
2022-12-01T07:22:49.465Z,1.13
2022-12-01T07:27:52.369Z,1.11
2022-12-01T07:32:55.380Z,1.12
2022-12-01T07:37:58.488Z,1.14
2022-12-01T07:43:01.490Z,1.13
2022-12-01T07:48:04.603Z,1.12
2022-12-01T07:53:07.502Z,1.17
2022-12-01T07:58:10.408Z,1.23
2022-12-01T08:03:13.658Z,1.21
2022-12-01T08:08:16.652Z,1.24
2022-12-01T08:13:20.925Z,1.33
2022-12-01T08:18:24.687Z,1.38
2022-12-01T08:23:27.799Z,1.41
2022-12-01T08:28:31.827Z,1.43
2022-12-01T08:33:35.038Z,1.48
2022-12-01T08:38:38.352Z,1.55
2022-12-01T08:44:00.415Z,1.57
2022-12-01T08:49:06.344Z,1.60
2022-12-01T08:54:11.222Z,1.59
2022-12-01T08:59:14.340Z,1.60
2022-12-01T09:04:22.367Z,1.61
2022-12-01T09:09:28.597Z,1.63
2022-12-01T09:14:31.647Z,1.65
2022-12-01T09:19:35.554Z,1.70
2022-12-01T09:24:38.791Z,1.73
2022-12-01T09:29:41.902Z,1.80
2022-12-01T09:34:45.111Z,1.85
2022-12-01T09:39:48.463Z,1.88
2022-12-01T09:44:54.611Z,1.91
2022-12-01T09:50:16.657Z,1.97
2022-12-01T09:55:23.328Z,2.04
2022-12-01T10:00:31.909Z,2.11
2022-12-01T10:11:40.203Z,2.23
2022-12-01T10:16:55.811Z,2.21
2022-12-01T10:22:13.917Z,2.19
2022-12-01T10:27:16.820Z,2.17
2022-12-01T10:32:26.433Z,2.17
2022-12-01T10:37:30.952Z,2.22
2022-12-01T10:42:41.327Z,2.28
2022-12-01T10:48:09.449Z,2.36
2022-12-01T10:53:32.415Z,2.40
2022-12-01T10:58:49.918Z,2.40
2022-12-01T11:04:42.691Z,2.44
2022-12-01T11:09:48.688Z,2.42
2022-12-01T11:14:54.645Z,2.40
2022-12-01T11:19:57.789Z,2.38
2022-12-01T11:25:05.675Z,2.36
2022-12-01T11:30:21.483Z,2.37
2022-12-01T11:35:32.168Z,2.34
2022-12-01T11:40:56.340Z,2.31
2022-12-01T11:46:07.692Z,2.27
2022-12-01T11:51:20.140Z,2.29
2022-12-01T11:56:28.801Z,2.28
2022-12-01T12:01:40.857Z,2.26
2022-12-01T12:07:01.476Z,2.26
2022-12-01T12:12:10.422Z,2.22
2022-12-01T12:17:28.242Z,2.18
2022-12-01T12:22:40.397Z,2.12
2022-12-01T12:28:03.275Z,2.12
2022-12-01T12:33:42.639Z,2.09
2022-12-01T12:39:01.301Z,2.07
2022-12-01T12:44:25.707Z,2.05
2022-12-01T12:49:44.392Z,2.04
2022-12-01T12:54:51.797Z,2.04
2022-12-01T13:00:03.608Z,2.01
2022-12-01T13:05:18.925Z,1.99
2022-12-01T13:10:43.410Z,1.99
2022-12-01T13:15:50.690Z,1.99
2022-12-01T13:20:55.979Z,1.97
2022-12-01T13:26:01.749Z,1.94
2022-12-01T13:31:11.345Z,1.92
2022-12-01T13:41:39.704Z,1.91
2022-12-01T13:46:42.998Z,1.86
2022-12-01T13:52:23.369Z,1.86
2022-12-01T13:57:29.428Z,1.86
2022-12-01T14:02:35.176Z,1.83
2022-12-01T14:07:39.054Z,1.79
2022-12-01T14:12:46.030Z,1.74
2022-12-01T14:18:00.695Z,1.71
2022-12-01T14:23:24.795Z,1.68
2022-12-01T14:28:56.045Z,1.67
2022-12-01T14:34:01.634Z,1.65
2022-12-01T14:39:13.265Z,1.64
2022-12-01T14:44:36.152Z,1.65
2022-12-01T14:49:57.653Z,1.65
2022-12-01T14:55:07.321Z,1.65
2022-12-01T15:00:16.615Z,1.64
2022-12-01T15:05:27.481Z,1.62
2022-12-01T15:10:35.458Z,1.58
2022-12-01T15:15:53.449Z,1.56
2022-12-01T15:21:02.053Z,1.56
2022-12-01T15:26:05.361Z,1.55
2022-12-01T15:31:12.954Z,1.53
2022-12-01T15:36:16.557Z,1.48
2022-12-01T15:41:29.936Z,1.44
2022-12-01T15:46:34.746Z,1.39
2022-12-01T15:51:37.939Z,1.37
2022-12-01T15:56:41.869Z,1.34
2022-12-01T16:01:45.658Z,1.31
2022-12-01T16:07:10.203Z,1.28
2022-12-01T16:12:22.219Z,1.24
2022-12-01T16:17:26.431Z,1.21
2022-12-01T16:22:29.563Z,1.16
2022-12-01T16:27:32.778Z,1.10
2022-12-01T16:32:43.995Z,1.06
2022-12-01T16:37:47.194Z,1.02
2022-12-01T16:42:50.601Z,0.97
2022-12-01T16:47:53.619Z,0.91
2022-12-01T16:52:56.723Z,0.84
2022-12-01T16:57:59.830Z,0.75
2022-12-01T17:03:04.579Z,0.69
2022-12-01T17:08:07.735Z,0.66
2022-12-01T17:13:11.860Z,0.66
2022-12-01T17:18:17.072Z,0.68
2022-12-01T17:23:20.176Z,0.69
2022-12-01T17:28:23.289Z,0.67
2022-12-01T17:33:26.295Z,0.67
2022-12-01T17:38:29.527Z,0.69
2022-12-01T17:43:34.766Z,0.69
2022-12-01T17:48:40.640Z,0.69
2022-12-01T17:53:43.644Z,0.66
2022-12-01T17:58:49.473Z,0.67
2022-12-01T18:03:53.038Z,0.69
2022-12-01T18:08:57.620Z,0.70
2022-12-01T18:14:01.530Z,0.69
2022-12-01T18:19:04.726Z,0.69
2022-12-01T18:24:12.025Z,0.70
2022-12-01T18:29:25.905Z,0.70
2022-12-01T18:34:32.034Z,0.70
2022-12-01T18:39:35.080Z,0.66
2022-12-01T18:44:39.106Z,0.60
2022-12-01T18:49:42.310Z,0.53
2022-12-01T18:54:45.419Z,0.45
2022-12-01T18:59:48.543Z,0.40
2022-12-01T19:04:51.841Z,0.36
2022-12-01T19:09:55.164Z,0.32
2022-12-01T19:14:58.463Z,0.28
2022-12-01T19:20:01.783Z,0.22
2022-12-01T19:25:05.742Z,0.17
2022-12-01T19:30:09.362Z,0.13
2022-12-01T19:35:12.651Z,0.08
2022-12-01T19:40:15.877Z,0.05
2022-12-01T19:45:19.073Z,0.02
2022-12-01T19:50:22.085Z,-0.02
2022-12-01T19:55:25.394Z,-0.04
2022-12-01T20:00:28.609Z,-0.05
2022-12-01T20:05:32.819Z,-0.05
2022-12-01T20:10:35.843Z,-0.07
2022-12-01T20:15:39.071Z,-0.11
2022-12-01T20:20:42.367Z,-0.15
2022-12-01T20:25:45.269Z,-0.19
2022-12-01T20:30:48.282Z,-0.21
2022-12-01T20:35:51.801Z,-0.23
2022-12-01T20:40:55.243Z,-0.26
2022-12-01T20:45:58.280Z,-0.28
2022-12-01T20:51:03.894Z,-0.31
2022-12-01T20:56:10.038Z,-0.33
2022-12-01T21:01:16.475Z,-0.33
2022-12-01T21:06:20.588Z,-0.36
2022-12-01T21:11:47.865Z,-0.38
2022-12-01T21:16:55.331Z,-0.38
2022-12-01T21:21:59.040Z,-0.39
2022-12-01T21:27:13.165Z,-0.39
2022-12-01T21:32:19.957Z,-0.39
2022-12-01T21:37:25.112Z,-0.40
2022-12-01T21:42:31.715Z,-0.45
2022-12-01T21:47:35.076Z,-0.50
2022-12-01T21:52:42.019Z,-0.56
2022-12-01T21:57:47.298Z,-0.61
2022-12-01T22:02:52.529Z,-0.65
2022-12-01T22:08:10.022Z,-0.70
2022-12-01T22:13:13.199Z,-0.71
2022-12-01T22:18:25.504Z,-0.73
2022-12-01T22:23:34.062Z,-0.77
2022-12-01T22:28:37.169Z,-0.78
2022-12-01T22:33:40.174Z,-0.79
2022-12-01T22:38:43.481Z,-0.84
2022-12-01T22:43:49.565Z,-0.89
2022-12-01T22:49:01.171Z,-0.91
2022-12-01T22:54:10.323Z,-0.93
2022-12-01T22:59:15.324Z,-0.98
2022-12-01T23:04:29.745Z,-1.03
2022-12-01T23:09:40.546Z,-1.09
2022-12-01T23:14:46.612Z,-1.15
2022-12-01T23:19:52.441Z,-1.20
2022-12-01T23:24:55.391Z,-1.27
2022-12-01T23:29:59.225Z,-1.31
2022-12-01T23:35:02.669Z,-1.34
2022-12-01T23:40:20.691Z,-1.36
2022-12-01T23:45:26.001Z,-1.36
2022-12-01T23:50:30.755Z,-1.39
2022-12-01T23:55:34.522Z,-1.42
